Allardt, TN

5:33 AM CDT on July 29, 2015 (GMT -0500)
Highlands @ BSF | | Change Station
CLOSE
Current Station
Personal Weather Station
Location: Jamestown, TN
Elevation: 1637 ft
Nearby Weather Stations

Elev 1637 ft 36.49 °N, 84.86 °W | Updated 9 minutes ago

Partly Cloudy
Partly Cloudy
69.4 °F
Feels Like 69.4 °F
N
0.0
Wind Variable Wind from WNW

Today
High -- | Low -- °F
--% Chance of Precip.
Yesterday
High -- | Low -- °F
Precip. -- in
5:43 AM 7:47 PM
Waxing Gibbous, 95% visible
Pressure 30.01 in
Visibility 7.0 miles
Clouds Scattered Clouds 2200 ft
Dew Point 68 °F
Humidity 96%
Rainfall 0.00 in
Snow Depth Not available.
UV 0 out of 12
Pollen 3.80 out of 12
Air Quality Not available.
Flu Activity Not available.
METAR KCSV 290953Z AUTO 00000KT 7SM SCT022 22/19 A3007 RMK AO2 SLP160 T02170194

More Conditions Fewer Conditions

Pressure 30.01 in
Visibility 7.0 miles
Clouds Scattered Clouds 2200 ft
Dew Point 68 °F
Humidity 96%
Rainfall 0.00 in
Snow Depth Not available.
UV 0 out of 12
Pollen 3.80 out of 12
Air Quality Not available.
Flu Activity Not available.
METAR KCSV 290953Z AUTO 00000KT 7SM SCT022 22/19 A3007 RMK AO2 SLP160 T02170194

More Conditions Fewer Conditions

10-Day Weather Forecast

×

Almanac

Astronomy

Jul. 29, 2015 Rise Set
Actual Time
Civil Twilight
Nautical Twilight
Astronomical Twilight
Moon
Length of Visible Light
Length of Day
Tomorrow will be .
, % of the Moon is Illuminated

Today's Extremes

State Highs State Lows

Community

WunderPhotos

Upload Photos

1,842,069 photos uploaded!

WunderBlogs® & News

Nearby

Air Quality

  Air Quality AQ Index Pollutant
Not available.

Snow Depth

Station Depth Elevation

Earthquake Activity

City Distance Mag. Time & Date
Minimum magnitude displayed is 2.5.

Coastal Water Temperatures

Place Temperature

Stations

Nearby Weather Stations

Station Location Temp. Windchill Dew Point Humidity Wind Precip. Elev Updated Type